sensor_id;sensor_type;location;lat;lon;timestamp;P1;durP1;ratioP1;P2;durP2;ratioP2
59310;SDS011;45078;51.654;21.250;2023-05-29T00:01:13;8.20;;;2.75;;
59310;SDS011;45078;51.654;21.250;2023-05-29T00:03:44;7.75;;;3.17;;
59310;SDS011;45078;51.654;21.250;2023-05-29T00:06:10;6.75;;;3.28;;
59310;SDS011;45078;51.654;21.250;2023-05-29T00:08:35;8.52;;;3.25;;
59310;SDS011;45078;51.654;21.250;2023-05-29T00:11:01;8.00;;;2.95;;
59310;SDS011;45078;51.654;21.250;2023-05-29T00:13:27;7.57;;;3.60;;
59310;SDS011;45078;51.654;21.250;2023-05-29T00:15:53;7.45;;;3.17;;
59310;SDS011;45078;51.654;21.250;2023-05-29T00:18:19;10.10;;;3.42;;
59310;SDS011;45078;51.654;21.250;2023-05-29T00:20:44;8.15;;;3.50;;
59310;SDS011;45078;51.654;21.250;2023-05-29T00:23:11;9.15;;;3.95;;
59310;SDS011;45078;51.654;21.250;2023-05-29T00:25:36;10.80;;;3.75;;
59310;SDS011;45078;51.654;21.250;2023-05-29T00:28:02;12.00;;;4.40;;
59310;SDS011;45078;51.654;21.250;2023-05-29T00:30:28;10.23;;;3.83;;
59310;SDS011;45078;51.654;21.250;2023-05-29T00:32:54;9.10;;;4.15;;
59310;SDS011;45078;51.654;21.250;2023-05-29T00:35:19;9.30;;;3.45;;
59310;SDS011;45078;51.654;21.250;2023-05-29T00:37:45;5.78;;;3.38;;
59310;SDS011;45078;51.654;21.250;2023-05-29T00:40:11;6.30;;;3.42;;
59310;SDS011;45078;51.654;21.250;2023-05-29T00:42:37;10.45;;;4.47;;
59310;SDS011;45078;51.654;21.250;2023-05-29T00:45:03;11.32;;;4.55;;
59310;SDS011;45078;51.654;21.250;2023-05-29T00:47:29;9.52;;;4.07;;
59310;SDS011;45078;51.654;21.250;2023-05-29T00:49:55;11.43;;;4.60;;
59310;SDS011;45078;51.654;21.250;2023-05-29T00:52:23;11.40;;;3.55;;
59310;SDS011;45078;51.654;21.250;2023-05-29T00:54:50;10.20;;;3.70;;
59310;SDS011;45078;51.654;21.250;2023-05-29T00:57:17;9.77;;;3.90;;
59310;SDS011;45078;51.654;21.250;2023-05-29T00:59:44;8.80;;;3.85;;
59310;SDS011;45078;51.654;21.250;2023-05-29T01:02:12;8.43;;;3.92;;
59310;SDS011;45078;51.654;21.250;2023-05-29T01:04:39;7.18;;;3.72;;
59310;SDS011;45078;51.654;21.250;2023-05-29T01:07:05;5.53;;;3.00;;
59310;SDS011;45078;51.654;21.250;2023-05-29T01:09:32;7.78;;;3.35;;
59310;SDS011;45078;51.654;21.250;2023-05-29T01:17:47;6.63;;;3.40;;
59310;SDS011;45078;51.654;21.250;2023-05-29T01:20:38;7.47;;;3.35;;
59310;SDS011;45078;51.654;21.250;2023-05-29T01:23:08;6.68;;;3.08;;
59310;SDS011;45078;51.654;21.250;2023-05-29T01:28:51;6.20;;;2.83;;
59310;SDS011;45078;51.654;21.250;2023-05-29T01:31:21;11.15;;;2.85;;
59310;SDS011;45078;51.654;21.250;2023-05-29T01:33:57;8.55;;;3.08;;
59310;SDS011;45078;51.654;21.250;2023-05-29T01:36:24;11.90;;;3.25;;
59310;SDS011;45078;51.654;21.250;2023-05-29T01:38:51;6.40;;;3.17;;
59310;SDS011;45078;51.654;21.250;2023-05-29T01:41:19;5.72;;;3.25;;
59310;SDS011;45078;51.654;21.250;2023-05-29T01:43:47;4.63;;;2.25;;
59310;SDS011;45078;51.654;21.250;2023-05-29T01:46:14;5.10;;;2.60;;
59310;SDS011;45078;51.654;21.250;2023-05-29T01:48:41;4.28;;;2.65;;
59310;SDS011;45078;51.654;21.250;2023-05-29T01:51:10;6.45;;;2.58;;
59310;SDS011;45078;51.654;21.250;2023-05-29T01:53:37;8.68;;;2.78;;
59310;SDS011;45078;51.654;21.250;2023-05-29T01:56:06;5.78;;;2.95;;
59310;SDS011;45078;51.654;21.250;2023-05-29T01:58:37;12.52;;;3.10;;
59310;SDS011;45078;51.654;21.250;2023-05-29T02:01:06;7.55;;;2.80;;
59310;SDS011;45078;51.654;21.250;2023-05-29T02:03:32;6.53;;;2.72;;
59310;SDS011;45078;51.654;21.250;2023-05-29T02:05:58;7.13;;;3.20;;
59310;SDS011;45078;51.654;21.250;2023-05-29T02:08:25;5.15;;;2.72;;
59310;SDS011;45078;51.654;21.250;2023-05-29T02:10:51;6.38;;;3.25;;
59310;SDS011;45078;51.654;21.250;2023-05-29T02:13:17;4.28;;;2.50;;
59310;SDS011;45078;51.654;21.250;2023-05-29T02:15:43;6.25;;;3.10;;
59310;SDS011;45078;51.654;21.250;2023-05-29T02:18:10;5.93;;;2.95;;
59310;SDS011;45078;51.654;21.250;2023-05-29T02:20:39;5.15;;;2.45;;
59310;SDS011;45078;51.654;21.250;2023-05-29T02:23:06;4.70;;;2.92;;
59310;SDS011;45078;51.654;21.250;2023-05-29T02:25:34;5.07;;;2.85;;
59310;SDS011;45078;51.654;21.250;2023-05-29T02:28:01;5.80;;;2.70;;
59310;SDS011;45078;51.654;21.250;2023-05-29T02:30:27;5.00;;;2.50;;
59310;SDS011;45078;51.654;21.250;2023-05-29T02:32:53;23.83;;;2.70;;
59310;SDS011;45078;51.654;21.250;2023-05-29T02:35:19;5.07;;;2.33;;
59310;SDS011;45078;51.654;21.250;2023-05-29T02:37:50;5.63;;;2.63;;
59310;SDS011;45078;51.654;21.250;2023-05-29T02:40:17;4.30;;;1.85;;
59310;SDS011;45078;51.654;21.250;2023-05-29T02:42:43;6.22;;;2.35;;
59310;SDS011;45078;51.654;21.250;2023-05-29T02:45:09;5.75;;;2.85;;
59310;SDS011;45078;51.654;21.250;2023-05-29T02:47:35;5.50;;;3.00;;
59310;SDS011;45078;51.654;21.250;2023-05-29T02:50:02;4.70;;;2.42;;
59310;SDS011;45078;51.654;21.250;2023-05-29T02:52:28;9.32;;;3.13;;
59310;SDS011;45078;51.654;21.250;2023-05-29T02:54:55;3.47;;;1.95;;
59310;SDS011;45078;51.654;21.250;2023-05-29T02:57:21;7.35;;;2.22;;
59310;SDS011;45078;51.654;21.250;2023-05-29T02:59:47;5.57;;;2.53;;
59310;SDS011;45078;51.654;21.250;2023-05-29T03:02:14;4.90;;;2.35;;
59310;SDS011;45078;51.654;21.250;2023-05-29T03:04:39;4.70;;;2.60;;
59310;SDS011;45078;51.654;21.250;2023-05-29T03:07:05;5.97;;;2.45;;
59310;SDS011;45078;51.654;21.250;2023-05-29T03:09:32;8.13;;;2.75;;
59310;SDS011;45078;51.654;21.250;2023-05-29T03:11:58;4.72;;;2.35;;
59310;SDS011;45078;51.654;21.250;2023-05-29T03:14:26;5.07;;;2.28;;
59310;SDS011;45078;51.654;21.250;2023-05-29T03:16:52;6.32;;;2.60;;
59310;SDS011;45078;51.654;21.250;2023-05-29T03:19:18;7.15;;;3.10;;
59310;SDS011;45078;51.654;21.250;2023-05-29T03:21:44;6.05;;;3.10;;
59310;SDS011;45078;51.654;21.250;2023-05-29T03:24:11;4.75;;;2.38;;
59310;SDS011;45078;51.654;21.250;2023-05-29T03:26:38;5.35;;;2.53;;
59310;SDS011;45078;51.654;21.250;2023-05-29T03:29:04;8.02;;;2.88;;
59310;SDS011;45078;51.654;21.250;2023-05-29T03:31:30;7.68;;;2.53;;
59310;SDS011;45078;51.654;21.250;2023-05-29T03:33:56;5.50;;;2.88;;
59310;SDS011;45078;51.654;21.250;2023-05-29T03:36:23;6.40;;;3.15;;
59310;SDS011;45078;51.654;21.250;2023-05-29T03:38:48;6.43;;;3.03;;
59310;SDS011;45078;51.654;21.250;2023-05-29T03:41:14;5.25;;;2.92;;
59310;SDS011;45078;51.654;21.250;2023-05-29T03:43:40;7.47;;;2.88;;
59310;SDS011;45078;51.654;21.250;2023-05-29T03:46:06;5.25;;;2.92;;
59310;SDS011;45078;51.654;21.250;2023-05-29T03:48:32;11.18;;;2.90;;
59310;SDS011;45078;51.654;21.250;2023-05-29T03:50:57;8.50;;;3.00;;
59310;SDS011;45078;51.654;21.250;2023-05-29T03:53:23;5.43;;;2.92;;
59310;SDS011;45078;51.654;21.250;2023-05-29T03:55:49;6.43;;;3.28;;
59310;SDS011;45078;51.654;21.250;2023-05-29T03:58:14;5.63;;;3.00;;
59310;SDS011;45078;51.654;21.250;2023-05-29T04:00:40;7.30;;;3.40;;
59310;SDS011;45078;51.654;21.250;2023-05-29T04:03:06;4.97;;;2.92;;
59310;SDS011;45078;51.654;21.250;2023-05-29T04:05:32;8.90;;;3.65;;
59310;SDS011;45078;51.654;21.250;2023-05-29T04:07:58;5.65;;;3.20;;
59310;SDS011;45078;51.654;21.250;2023-05-29T04:10:24;13.02;;;4.90;;
59310;SDS011;45078;51.654;21.250;2023-05-29T04:12:50;13.82;;;6.25;;
59310;SDS011;45078;51.654;21.250;2023-05-29T04:15:16;8.32;;;4.72;;
59310;SDS011;45078;51.654;21.250;2023-05-29T04:17:42;10.45;;;4.90;;
59310;SDS011;45078;51.654;21.250;2023-05-29T04:20:08;9.23;;;4.30;;
59310;SDS011;45078;51.654;21.250;2023-05-29T04:22:35;8.13;;;3.28;;
59310;SDS011;45078;51.654;21.250;2023-05-29T04:25:01;6.13;;;3.67;;
59310;SDS011;45078;51.654;21.250;2023-05-29T04:27:29;8.23;;;3.83;;
59310;SDS011;45078;51.654;21.250;2023-05-29T04:29:57;6.45;;;3.97;;
59310;SDS011;45078;51.654;21.250;2023-05-29T04:32:23;13.60;;;3.42;;
59310;SDS011;45078;51.654;21.250;2023-05-29T04:34:49;6.43;;;3.10;;
59310;SDS011;45078;51.654;21.250;2023-05-29T04:37:16;10.75;;;3.50;;
59310;SDS011;45078;51.654;21.250;2023-05-29T04:39:42;6.53;;;2.90;;
59310;SDS011;45078;51.654;21.250;2023-05-29T04:42:08;7.63;;;3.67;;
59310;SDS011;45078;51.654;21.250;2023-05-29T04:44:34;6.50;;;3.20;;
59310;SDS011;45078;51.654;21.250;2023-05-29T04:47:00;7.55;;;3.00;;
59310;SDS011;45078;51.654;21.250;2023-05-29T04:49:29;7.13;;;3.40;;
59310;SDS011;45078;51.654;21.250;2023-05-29T04:51:55;7.53;;;3.78;;
59310;SDS011;45078;51.654;21.250;2023-05-29T04:54:21;6.97;;;3.08;;
59310;SDS011;45078;51.654;21.250;2023-05-29T04:56:48;7.60;;;3.30;;
59310;SDS011;45078;51.654;21.250;2023-05-29T04:59:13;6.50;;;3.08;;
59310;SDS011;45078;51.654;21.250;2023-05-29T05:01:39;4.28;;;2.63;;
59310;SDS011;45078;51.654;21.250;2023-05-29T05:04:08;5.75;;;2.60;;
59310;SDS011;45078;51.654;21.250;2023-05-29T05:06:34;5.95;;;2.60;;
59310;SDS011;45078;51.654;21.250;2023-05-29T05:09:00;7.35;;;2.80;;
59310;SDS011;45078;51.654;21.250;2023-05-29T05:11:26;6.43;;;2.78;;
59310;SDS011;45078;51.654;21.250;2023-05-29T05:13:52;5.97;;;2.67;;
59310;SDS011;45078;51.654;21.250;2023-05-29T05:16:17;3.75;;;2.42;;
59310;SDS011;45078;51.654;21.250;2023-05-29T05:18:43;6.10;;;2.45;;
59310;SDS011;45078;51.654;21.250;2023-05-29T05:21:09;6.57;;;2.13;;
59310;SDS011;45078;51.654;21.250;2023-05-29T05:23:35;4.95;;;2.38;;
59310;SDS011;45078;51.654;21.250;2023-05-29T05:26:01;6.22;;;2.60;;
59310;SDS011;45078;51.654;21.250;2023-05-29T05:28:27;4.05;;;2.13;;
59310;SDS011;45078;51.654;21.250;2023-05-29T05:30:53;4.43;;;2.22;;
59310;SDS011;45078;51.654;21.250;2023-05-29T05:33:19;4.00;;;2.33;;
59310;SDS011;45078;51.654;21.250;2023-05-29T05:35:45;4.32;;;2.05;;
59310;SDS011;45078;51.654;21.250;2023-05-29T05:38:11;4.60;;;1.60;;
59310;SDS011;45078;51.654;21.250;2023-05-29T05:40:37;4.53;;;1.98;;
59310;SDS011;45078;51.654;21.250;2023-05-29T05:43:03;5.78;;;2.13;;
59310;SDS011;45078;51.654;21.250;2023-05-29T05:45:28;3.22;;;1.90;;
59310;SDS011;45078;51.654;21.250;2023-05-29T05:47:54;7.10;;;2.17;;
59310;SDS011;45078;51.654;21.250;2023-05-29T05:50:21;3.83;;;2.03;;
59310;SDS011;45078;51.654;21.250;2023-05-29T05:52:47;7.50;;;2.10;;
59310;SDS011;45078;51.654;21.250;2023-05-29T05:55:13;3.17;;;1.88;;
59310;SDS011;45078;51.654;21.250;2023-05-29T05:57:39;3.72;;;1.90;;
59310;SDS011;45078;51.654;21.250;2023-05-29T06:00:05;2.92;;;1.60;;
59310;SDS011;45078;51.654;21.250;2023-05-29T06:02:40;4.75;;;1.70;;
59310;SDS011;45078;51.654;21.250;2023-05-29T06:05:08;4.45;;;2.00;;
59310;SDS011;45078;51.654;21.250;2023-05-29T06:07:34;8.15;;;1.80;;
59310;SDS011;45078;51.654;21.250;2023-05-29T06:10:01;3.22;;;1.67;;
59310;SDS011;45078;51.654;21.250;2023-05-29T06:12:26;3.65;;;1.83;;
59310;SDS011;45078;51.654;21.250;2023-05-29T06:14:52;5.53;;;1.45;;
59310;SDS011;45078;51.654;21.250;2023-05-29T06:17:18;6.82;;;1.83;;
59310;SDS011;45078;51.654;21.250;2023-05-29T06:19:44;2.90;;;1.48;;
59310;SDS011;45078;51.654;21.250;2023-05-29T06:22:10;3.72;;;2.17;;
59310;SDS011;45078;51.654;21.250;2023-05-29T06:24:35;5.70;;;1.60;;
59310;SDS011;45078;51.654;21.250;2023-05-29T06:27:01;5.97;;;1.70;;
59310;SDS011;45078;51.654;21.250;2023-05-29T06:29:27;4.57;;;1.27;;
59310;SDS011;45078;51.654;21.250;2023-05-29T06:31:52;2.22;;;1.48;;
59310;SDS011;45078;51.654;21.250;2023-05-29T06:34:18;2.63;;;1.40;;
59310;SDS011;45078;51.654;21.250;2023-05-29T06:36:44;5.28;;;1.60;;
59310;SDS011;45078;51.654;21.250;2023-05-29T06:39:10;7.00;;;2.35;;
59310;SDS011;45078;51.654;21.250;2023-05-29T06:41:38;4.20;;;1.75;;
59310;SDS011;45078;51.654;21.250;2023-05-29T06:44:04;4.28;;;2.00;;
59310;SDS011;45078;51.654;21.250;2023-05-29T06:46:30;3.88;;;2.20;;
59310;SDS011;45078;51.654;21.250;2023-05-29T06:48:56;5.00;;;1.90;;
59310;SDS011;45078;51.654;21.250;2023-05-29T06:51:22;3.78;;;2.08;;
59310;SDS011;45078;51.654;21.250;2023-05-29T06:53:47;5.45;;;2.50;;
59310;SDS011;45078;51.654;21.250;2023-05-29T06:56:13;5.47;;;2.40;;
59310;SDS011;45078;51.654;21.250;2023-05-29T06:58:39;3.85;;;1.98;;
59310;SDS011;45078;51.654;21.250;2023-05-29T07:01:05;5.82;;;2.05;;
59310;SDS011;45078;51.654;21.250;2023-05-29T07:03:30;3.22;;;1.90;;
59310;SDS011;45078;51.654;21.250;2023-05-29T07:05:56;4.20;;;2.30;;
59310;SDS011;45078;51.654;21.250;2023-05-29T07:08:22;6.65;;;2.08;;
59310;SDS011;45078;51.654;21.250;2023-05-29T07:10:49;3.75;;;2.08;;
59310;SDS011;45078;51.654;21.250;2023-05-29T07:13:15;6.00;;;2.05;;
59310;SDS011;45078;51.654;21.250;2023-05-29T07:15:42;5.15;;;2.33;;
59310;SDS011;45078;51.654;21.250;2023-05-29T07:18:13;6.63;;;2.17;;
59310;SDS011;45078;51.654;21.250;2023-05-29T07:20:39;3.47;;;1.70;;
59310;SDS011;45078;51.654;21.250;2023-05-29T07:23:04;5.32;;;2.03;;
59310;SDS011;45078;51.654;21.250;2023-05-29T07:25:30;4.20;;;1.80;;
59310;SDS011;45078;51.654;21.250;2023-05-29T07:27:56;4.13;;;1.65;;
59310;SDS011;45078;51.654;21.250;2023-05-29T07:30:22;3.17;;;1.65;;
59310;SDS011;45078;51.654;21.250;2023-05-29T07:32:48;1.65;;;0.80;;
59310;SDS011;45078;51.654;21.250;2023-05-29T07:35:14;2.55;;;1.48;;
59310;SDS011;45078;51.654;21.250;2023-05-29T07:37:39;4.00;;;1.90;;
59310;SDS011;45078;51.654;21.250;2023-05-29T07:40:05;2.38;;;1.10;;
59310;SDS011;45078;51.654;21.250;2023-05-29T07:42:32;1.48;;;0.90;;
59310;SDS011;45078;51.654;21.250;2023-05-29T07:44:59;2.78;;;1.25;;
59310;SDS011;45078;51.654;21.250;2023-05-29T07:47:25;2.50;;;1.10;;
59310;SDS011;45078;51.654;21.250;2023-05-29T07:49:51;2.25;;;1.20;;
59310;SDS011;45078;51.654;21.250;2023-05-29T07:52:19;4.25;;;1.10;;
59310;SDS011;45078;51.654;21.250;2023-05-29T07:54:45;5.15;;;1.60;;
59310;SDS011;45078;51.654;21.250;2023-05-29T07:57:11;3.10;;;1.30;;
59310;SDS011;45078;51.654;21.250;2023-05-29T07:59:37;3.25;;;1.00;;
59310;SDS011;45078;51.654;21.250;2023-05-29T08:02:05;4.28;;;0.85;;
59310;SDS011;45078;51.654;21.250;2023-05-29T08:04:31;3.47;;;1.60;;
59310;SDS011;45078;51.654;21.250;2023-05-29T08:06:57;4.05;;;1.40;;
59310;SDS011;45078;51.654;21.250;2023-05-29T08:09:24;3.22;;;1.30;;
59310;SDS011;45078;51.654;21.250;2023-05-29T08:11:50;7.07;;;1.60;;
59310;SDS011;45078;51.654;21.250;2023-05-29T08:14:16;2.20;;;1.23;;
59310;SDS011;45078;51.654;21.250;2023-05-29T08:16:42;4.18;;;1.20;;
59310;SDS011;45078;51.654;21.250;2023-05-29T08:19:07;1.67;;;1.05;;
59310;SDS011;45078;51.654;21.250;2023-05-29T08:21:33;3.55;;;0.93;;
59310;SDS011;45078;51.654;21.250;2023-05-29T08:23:59;1.48;;;0.82;;
59310;SDS011;45078;51.654;21.250;2023-05-29T08:26:27;3.20;;;1.52;;
59310;SDS011;45078;51.654;21.250;2023-05-29T08:28:52;2.28;;;1.00;;
59310;SDS011;45078;51.654;21.250;2023-05-29T08:31:19;2.00;;;1.10;;
59310;SDS011;45078;51.654;21.250;2023-05-29T08:33:45;2.35;;;1.27;;
59310;SDS011;45078;51.654;21.250;2023-05-29T08:36:11;2.38;;;1.08;;
59310;SDS011;45078;51.654;21.250;2023-05-29T08:38:37;1.92;;;1.10;;
59310;SDS011;45078;51.654;21.250;2023-05-29T08:41:02;2.50;;;1.20;;
59310;SDS011;45078;51.654;21.250;2023-05-29T08:43:32;1.48;;;0.80;;
59310;SDS011;45078;51.654;21.250;2023-05-29T08:46:00;1.50;;;1.00;;
59310;SDS011;45078;51.654;21.250;2023-05-29T08:48:29;3.05;;;1.10;;
59310;SDS011;45078;51.654;21.250;2023-05-29T08:50:56;2.25;;;0.90;;
59310;SDS011;45078;51.654;21.250;2023-05-29T08:53:24;2.45;;;1.10;;
59310;SDS011;45078;51.654;21.250;2023-05-29T08:55:50;4.88;;;1.08;;
59310;SDS011;45078;51.654;21.250;2023-05-29T08:58:20;3.60;;;0.90;;
59310;SDS011;45078;51.654;21.250;2023-05-29T09:00:47;5.07;;;1.13;;
59310;SDS011;45078;51.654;21.250;2023-05-29T09:03:13;3.63;;;1.13;;
59310;SDS011;45078;51.654;21.250;2023-05-29T09:05:40;2.53;;;1.13;;
59310;SDS011;45078;51.654;21.250;2023-05-29T09:08:09;6.93;;;1.20;;
59310;SDS011;45078;51.654;21.250;2023-05-29T09:10:40;3.85;;;1.17;;
59310;SDS011;45078;51.654;21.250;2023-05-29T09:13:08;2.65;;;1.15;;
59310;SDS011;45078;51.654;21.250;2023-05-29T09:15:35;4.05;;;1.42;;
59310;SDS011;45078;51.654;21.250;2023-05-29T09:18:03;4.65;;;1.33;;
59310;SDS011;45078;51.654;21.250;2023-05-29T09:20:30;4.53;;;1.58;;
59310;SDS011;45078;51.654;21.250;2023-05-29T09:22:56;3.65;;;1.50;;
59310;SDS011;45078;51.654;21.250;2023-05-29T09:25:28;2.58;;;1.30;;
59310;SDS011;45078;51.654;21.250;2023-05-29T09:28:03;5.00;;;1.38;;
59310;SDS011;45078;51.654;21.250;2023-05-29T09:30:33;2.03;;;1.15;;
59310;SDS011;45078;51.654;21.250;2023-05-29T09:33:10;5.03;;;1.30;;
59310;SDS011;45078;51.654;21.250;2023-05-29T09:35:38;2.75;;;1.10;;
59310;SDS011;45078;51.654;21.250;2023-05-29T09:38:09;6.13;;;1.30;;
59310;SDS011;45078;51.654;21.250;2023-05-29T09:40:37;2.25;;;1.15;;
59310;SDS011;45078;51.654;21.250;2023-05-29T09:45:43;2.80;;;1.30;;
59310;SDS011;45078;51.654;21.250;2023-05-29T09:48:14;4.07;;;1.50;;
59310;SDS011;45078;51.654;21.250;2023-05-29T09:50:47;1.77;;;1.30;;
59310;SDS011;45078;51.654;21.250;2023-05-29T09:53:17;3.63;;;1.23;;
59310;SDS011;45078;51.654;21.250;2023-05-29T09:55:49;1.80;;;0.95;;
59310;SDS011;45078;51.654;21.250;2023-05-29T09:58:19;3.28;;;1.13;;
59310;SDS011;45078;51.654;21.250;2023-05-29T10:00:48;2.50;;;1.10;;
59310;SDS011;45078;51.654;21.250;2023-05-29T10:03:17;4.22;;;1.65;;
59310;SDS011;45078;51.654;21.250;2023-05-29T10:05:49;3.45;;;1.10;;
59310;SDS011;45078;51.654;21.250;2023-05-29T10:08:17;2.25;;;1.15;;
59310;SDS011;45078;51.654;21.250;2023-05-29T10:10:45;2.75;;;1.40;;
59310;SDS011;45078;51.654;21.250;2023-05-29T10:13:14;2.83;;;1.15;;
59310;SDS011;45078;51.654;21.250;2023-05-29T10:15:42;3.80;;;1.20;;
59310;SDS011;45078;51.654;21.250;2023-05-29T10:18:13;2.42;;;1.15;;
59310;SDS011;45078;51.654;21.250;2023-05-29T10:20:46;4.20;;;1.15;;
59310;SDS011;45078;51.654;21.250;2023-05-29T10:23:16;1.98;;;1.20;;
59310;SDS011;45078;51.654;21.250;2023-05-29T10:25:48;3.08;;;1.25;;
59310;SDS011;45078;51.654;21.250;2023-05-29T10:28:18;3.38;;;1.25;;
59310;SDS011;45078;51.654;21.250;2023-05-29T10:30:47;5.50;;;1.30;;
59310;SDS011;45078;51.654;21.250;2023-05-29T10:33:27;2.60;;;1.20;;
59310;SDS011;45078;51.654;21.250;2023-05-29T10:36:10;3.47;;;1.33;;
59310;SDS011;45078;51.654;21.250;2023-05-29T10:38:44;3.42;;;1.40;;
59310;SDS011;45078;51.654;21.250;2023-05-29T10:44:01;3.15;;;1.42;;
59310;SDS011;45078;51.654;21.250;2023-05-29T10:47:01;2.83;;;1.38;;
59310;SDS011;45078;51.654;21.250;2023-05-29T10:51:42;2.33;;;1.20;;
59310;SDS011;45078;51.654;21.250;2023-05-29T10:54:08;5.13;;;1.52;;
59310;SDS011;45078;51.654;21.250;2023-05-29T10:56:35;2.72;;;1.40;;
59310;SDS011;45078;51.654;21.250;2023-05-29T10:59:01;2.38;;;1.17;;
59310;SDS011;45078;51.654;21.250;2023-05-29T11:01:30;5.03;;;1.63;;
59310;SDS011;45078;51.654;21.250;2023-05-29T11:06:41;2.25;;;1.50;;
59310;SDS011;45078;51.654;21.250;2023-05-29T11:09:25;2.75;;;1.35;;
59310;SDS011;45078;51.654;21.250;2023-05-29T11:20:08;6.30;;;1.20;;
59310;SDS011;45078;51.654;21.250;2023-05-29T11:22:51;6.18;;;1.30;;
59310;SDS011;45078;51.654;21.250;2023-05-29T11:25:25;2.17;;;1.13;;
59310;SDS011;45078;51.654;21.250;2023-05-29T11:27:52;3.30;;;1.30;;
59310;SDS011;45078;51.654;21.250;2023-05-29T11:30:18;2.10;;;1.25;;
59310;SDS011;45078;51.654;21.250;2023-05-29T11:32:45;2.45;;;1.23;;
59310;SDS011;45078;51.654;21.250;2023-05-29T11:35:12;3.30;;;1.30;;
59310;SDS011;45078;51.654;21.250;2023-05-29T11:37:39;8.07;;;1.35;;
59310;SDS011;45078;51.654;21.250;2023-05-29T11:40:08;2.13;;;1.23;;
59310;SDS011;45078;51.654;21.250;2023-05-29T11:42:35;2.88;;;1.38;;
59310;SDS011;45078;51.654;21.250;2023-05-29T11:45:17;2.42;;;1.38;;
59310;SDS011;45078;51.654;21.250;2023-05-29T11:50:25;2.60;;;1.00;;
59310;SDS011;45078;51.654;21.250;2023-05-29T11:52:53;5.00;;;1.42;;
59310;SDS011;45078;51.654;21.250;2023-05-29T11:55:19;5.38;;;1.33;;
59310;SDS011;45078;51.654;21.250;2023-05-29T11:57:50;4.38;;;1.30;;
59310;SDS011;45078;51.654;21.250;2023-05-29T12:00:17;3.67;;;1.20;;
59310;SDS011;45078;51.654;21.250;2023-05-29T12:02:44;5.50;;;1.50;;
59310;SDS011;45078;51.654;21.250;2023-05-29T12:05:12;5.07;;;1.23;;
59310;SDS011;45078;51.654;21.250;2023-05-29T12:07:50;2.17;;;1.20;;
59310;SDS011;45078;51.654;21.250;2023-05-29T12:10:18;2.97;;;1.50;;
59310;SDS011;45078;51.654;21.250;2023-05-29T12:12:58;2.13;;;1.20;;
59310;SDS011;45078;51.654;21.250;2023-05-29T12:15:25;3.40;;;1.50;;
59310;SDS011;45078;51.654;21.250;2023-05-29T12:17:52;2.95;;;1.42;;
59310;SDS011;45078;51.654;21.250;2023-05-29T12:20:19;2.47;;;1.30;;
59310;SDS011;45078;51.654;21.250;2023-05-29T12:22:48;2.00;;;1.13;;
59310;SDS011;45078;51.654;21.250;2023-05-29T12:25:19;4.22;;;1.10;;
59310;SDS011;45078;51.654;21.250;2023-05-29T12:27:46;3.38;;;1.30;;
59310;SDS011;45078;51.654;21.250;2023-05-29T12:30:13;3.47;;;1.20;;
59310;SDS011;45078;51.654;21.250;2023-05-29T12:32:43;3.70;;;1.20;;
59310;SDS011;45078;51.654;21.250;2023-05-29T12:35:17;3.20;;;1.15;;
59310;SDS011;45078;51.654;21.250;2023-05-29T12:37:49;4.38;;;1.38;;
59310;SDS011;45078;51.654;21.250;2023-05-29T12:40:15;2.05;;;1.00;;
59310;SDS011;45078;51.654;21.250;2023-05-29T12:42:45;3.15;;;1.23;;
59310;SDS011;45078;51.654;21.250;2023-05-29T12:45:12;2.42;;;1.30;;
59310;SDS011;45078;51.654;21.250;2023-05-29T12:50:21;3.75;;;1.70;;
59310;SDS011;45078;51.654;21.250;2023-05-29T12:53:03;4.70;;;1.40;;
59310;SDS011;45078;51.654;21.250;2023-05-29T12:55:32;2.80;;;1.30;;
59310;SDS011;45078;51.654;21.250;2023-05-29T12:58:01;2.20;;;1.25;;
59310;SDS011;45078;51.654;21.250;2023-05-29T13:00:28;3.58;;;1.20;;
59310;SDS011;45078;51.654;21.250;2023-05-29T13:02:55;5.90;;;1.40;;
59310;SDS011;45078;51.654;21.250;2023-05-29T13:05:21;2.30;;;1.33;;
59310;SDS011;45078;51.654;21.250;2023-05-29T13:07:48;1.92;;;0.93;;
59310;SDS011;45078;51.654;21.250;2023-05-29T13:10:15;3.60;;;1.30;;
59310;SDS011;45078;51.654;21.250;2023-05-29T13:12:42;8.55;;;1.30;;
59310;SDS011;45078;51.654;21.250;2023-05-29T13:15:09;5.38;;;1.20;;
59310;SDS011;45078;51.654;21.250;2023-05-29T13:17:35;5.20;;;1.45;;
59310;SDS011;45078;51.654;21.250;2023-05-29T13:20:01;4.40;;;1.33;;
59310;SDS011;45078;51.654;21.250;2023-05-29T13:22:27;2.38;;;1.10;;
59310;SDS011;45078;51.654;21.250;2023-05-29T13:24:59;2.17;;;1.13;;
59310;SDS011;45078;51.654;21.250;2023-05-29T13:27:25;5.22;;;1.20;;
59310;SDS011;45078;51.654;21.250;2023-05-29T13:29:51;2.45;;;1.40;;
59310;SDS011;45078;51.654;21.250;2023-05-29T13:32:18;5.53;;;1.23;;
59310;SDS011;45078;51.654;21.250;2023-05-29T13:34:44;3.92;;;1.40;;
59310;SDS011;45078;51.654;21.250;2023-05-29T13:37:09;2.63;;;1.27;;
59310;SDS011;45078;51.654;21.250;2023-05-29T13:39:35;2.33;;;1.13;;
59310;SDS011;45078;51.654;21.250;2023-05-29T13:42:01;2.42;;;1.30;;
59310;SDS011;45078;51.654;21.250;2023-05-29T13:44:26;2.88;;;1.15;;
59310;SDS011;45078;51.654;21.250;2023-05-29T13:46:52;2.83;;;1.30;;
59310;SDS011;45078;51.654;21.250;2023-05-29T13:49:18;5.15;;;1.10;;
59310;SDS011;45078;51.654;21.250;2023-05-29T13:51:44;2.95;;;1.40;;
59310;SDS011;45078;51.654;21.250;2023-05-29T13:54:12;4.15;;;1.40;;
59310;SDS011;45078;51.654;21.250;2023-05-29T13:56:37;2.28;;;1.20;;
59310;SDS011;45078;51.654;21.250;2023-05-29T13:59:03;4.25;;;1.23;;
59310;SDS011;45078;51.654;21.250;2023-05-29T14:01:31;2.40;;;1.15;;
59310;SDS011;45078;51.654;21.250;2023-05-29T14:04:00;4.80;;;1.40;;
59310;SDS011;45078;51.654;21.250;2023-05-29T14:06:26;1.60;;;1.08;;
59310;SDS011;45078;51.654;21.250;2023-05-29T14:08:52;1.50;;;0.90;;
59310;SDS011;45078;51.654;21.250;2023-05-29T14:11:18;2.03;;;1.00;;
59310;SDS011;45078;51.654;21.250;2023-05-29T14:13:44;4.03;;;1.05;;
59310;SDS011;45078;51.654;21.250;2023-05-29T14:16:10;2.95;;;1.17;;
59310;SDS011;45078;51.654;21.250;2023-05-29T14:18:36;2.15;;;1.20;;
59310;SDS011;45078;51.654;21.250;2023-05-29T14:21:02;1.80;;;1.10;;
59310;SDS011;45078;51.654;21.250;2023-05-29T14:23:28;1.90;;;1.10;;
59310;SDS011;45078;51.654;21.250;2023-05-29T14:25:53;1.70;;;1.10;;
59310;SDS011;45078;51.654;21.250;2023-05-29T14:28:19;4.03;;;1.40;;
59310;SDS011;45078;51.654;21.250;2023-05-29T14:30:45;3.08;;;1.20;;
59310;SDS011;45078;51.654;21.250;2023-05-29T14:33:10;4.10;;;1.45;;
59310;SDS011;45078;51.654;21.250;2023-05-29T14:35:36;2.22;;;1.08;;
59310;SDS011;45078;51.654;21.250;2023-05-29T14:38:02;3.65;;;1.27;;
59310;SDS011;45078;51.654;21.250;2023-05-29T14:40:28;3.58;;;1.42;;
59310;SDS011;45078;51.654;21.250;2023-05-29T14:42:56;8.05;;;1.42;;
59310;SDS011;45078;51.654;21.250;2023-05-29T14:45:21;2.80;;;1.38;;
59310;SDS011;45078;51.654;21.250;2023-05-29T14:47:47;5.32;;;1.40;;
59310;SDS011;45078;51.654;21.250;2023-05-29T14:50:13;2.97;;;1.38;;
59310;SDS011;45078;51.654;21.250;2023-05-29T14:52:40;4.13;;;1.45;;
59310;SDS011;45078;51.654;21.250;2023-05-29T14:55:06;2.10;;;1.20;;
59310;SDS011;45078;51.654;21.250;2023-05-29T14:57:32;2.05;;;1.05;;
59310;SDS011;45078;51.654;21.250;2023-05-29T14:59:59;4.18;;;1.13;;
59310;SDS011;45078;51.654;21.250;2023-05-29T15:02:26;5.28;;;1.20;;
59310;SDS011;45078;51.654;21.250;2023-05-29T15:04:51;2.35;;;1.33;;
59310;SDS011;45078;51.654;21.250;2023-05-29T15:07:17;3.15;;;1.23;;